Time;durP1;ratioP1;P1;durP2;ratioP2;P2;SDS_P1;SDS_P2;PMS_P1;PMS_P2;Temp;Humidity;BMP_temperature;BMP_pressure;BME280_temperature;BME280_humidity;BME280_pressure;Samples;Min_cycle;Max_cycle;Signal;HPM_P1;HPM_P2
2022/01/20 00:00:03;;;;;;;3.70;3.40;;;0.60;96.30;;;;;;4899831;29;20197;-76
2022/01/20 00:02:34;;;;;;;3.63;3.07;;;0.70;96.30;;;;;;4914352;29;20421;-76
2022/01/20 00:08:01;;;;;;;2.97;2.73;;;0.70;96.30;;;;;;4899885;29;20404;-76
2022/01/20 00:26:55;;;;;;;2.93;2.70;;;0.70;96.30;;;;;;4871756;29;20413;-81
2022/01/20 00:29:28;;;;;;;3.03;2.83;;;0.70;96.30;;;;;;5145957;23;20881;-77
2022/01/20 00:32:07;;;;;;;3.63;3.30;;;0.70;96.30;;;;;;4916271;29;20417;-77
2022/01/20 00:35:20;;;;;;;3.13;2.70;;;0.70;96.30;;;;;;4916546;29;20412;-77
2022/01/20 00:37:20;;;;;;;3.33;2.70;;;0.80;96.30;;;;;;4907911;29;20515;-77
2022/01/20 00:39:46;;;;;;;2.77;2.47;;;0.70;96.30;;;;;;4917993;29;20455;-79
2022/01/20 00:42:12;;;;;;;4.40;2.90;;;0.70;96.30;;;;;;4919202;29;20995;-78
2022/01/20 00:44:37;;;;;;;2.73;2.53;;;0.70;96.30;;;;;;4916566;29;20179;-78
2022/01/20 00:47:03;;;;;;;3.20;2.90;;;0.70;96.30;;;;;;4917927;29;20172;-78
2022/01/20 00:49:28;;;;;;;2.80;2.60;;;0.70;96.30;;;;;;4916574;29;20196;-78
2022/01/20 00:51:54;;;;;;;3.73;2.80;;;0.70;96.30;;;;;;4916680;29;20267;-77
2022/01/20 00:54:20;;;;;;;1.80;1.70;;;0.70;96.30;;;;;;4917718;29;20181;-78
2022/01/20 00:56:45;;;;;;;3.37;2.37;;;0.60;96.30;;;;;;4917699;29;20185;-77
2022/01/20 00:59:11;;;;;;;2.73;2.40;;;0.60;96.30;;;;;;4916309;29;20216;-76
2022/01/20 05:02:27;;;;;;;8.43;1.83;;;-0.20;96.30;;;;;;4988428;23;20530;-73
2022/01/20 05:04:53;;;;;;;13.50;2.00;;;-0.10;96.30;;;;;;4913248;29;20416;-72
2022/01/20 05:07:23;;;;;;;13.10;1.90;;;-0.10;96.30;;;;;;4917295;29;20951;-73
2022/01/20 05:09:49;;;;;;;8.93;1.87;;;-0.10;96.30;;;;;;4909184;29;20440;-73
2022/01/20 05:12:19;;;;;;;15.33;2.70;;;-0.20;96.30;;;;;;4898427;29;20944;-73
2022/01/20 05:14:45;;;;;;;13.80;2.00;;;-0.20;96.30;;;;;;4916846;29;20284;-73
2022/01/20 05:17:10;;;;;;;7.63;1.90;;;-0.10;96.30;;;;;;4919494;29;20448;-74
2022/01/20 05:19:36;;;;;;;14.60;2.30;;;-0.20;96.30;;;;;;4919127;29;20208;-73
2022/01/20 05:24:47;;;;;;;22.53;2.80;;;-0.20;96.30;;;;;;5020664;23;20236;-74
2022/01/20 05:27:12;;;;;;;10.60;2.80;;;-0.10;96.30;;;;;;4918418;29;20914;-72
2022/01/20 05:29:38;;;;;;;14.53;2.67;;;0.00;96.30;;;;;;4915946;29;20523;-71
2022/01/20 05:32:03;;;;;;;14.00;2.13;;;0.10;96.30;;;;;;4910935;29;20277;-75
2022/01/20 05:34:29;;;;;;;12.63;2.20;;;0.10;96.30;;;;;;4904759;29;20263;-76
2022/01/20 05:36:54;;;;;;;7.73;2.13;;;0.20;96.30;;;;;;4907798;29;20212;-74
2022/01/20 05:39:20;;;;;;;11.00;1.90;;;0.20;96.30;;;;;;4908011;29;20195;-75
2022/01/20 05:41:46;;;;;;;8.40;1.30;;;0.20;96.30;;;;;;4915820;29;20271;-76
2022/01/20 05:44:11;;;;;;;10.80;2.00;;;0.20;96.30;;;;;;4899708;29;20175;-77
2022/01/20 05:46:44;;;;;;;13.20;2.50;;;0.20;96.30;;;;;;4898894;29;20179;-76
2022/01/20 05:49:10;;;;;;;13.40;2.30;;;0.20;96.30;;;;;;4899643;29;20589;-77
2022/01/20 05:51:40;;;;;;;9.13;2.37;;;0.20;96.30;;;;;;4916342;29;20483;-76
2022/01/20 05:54:07;;;;;;;14.90;2.70;;;0.20;96.30;;;;;;4906071;29;20794;-76
2022/01/20 05:56:33;;;;;;;30.83;2.87;;;0.10;96.30;;;;;;4882861;29;20420;-76
2022/01/20 05:58:59;;;;;;;14.60;2.50;;;0.10;96.30;;;;;;4916229;29;20419;-77
2022/01/20 06:01:26;;;;;;;12.53;1.87;;;0.10;96.30;;;;;;4899117;29;20441;-76
2022/01/20 06:03:52;;;;;;;15.73;2.30;;;0.10;96.30;;;;;;4916519;29;20417;-76
2022/01/20 06:06:18;;;;;;;15.83;3.40;;;0.10;96.30;;;;;;4915126;29;20522;-76
2022/01/20 06:08:44;;;;;;;15.37;3.27;;;0.20;96.30;;;;;;4906608;29;20432;-76
2022/01/20 06:11:10;;;;;;;17.63;2.63;;;0.20;96.30;;;;;;4916153;29;20251;-76
2022/01/20 06:13:36;;;;;;;12.13;2.47;;;0.20;96.30;;;;;;4915863;29;20192;-76
2022/01/20 06:16:02;;;;;;;15.30;1.43;;;0.30;96.30;;;;;;4896176;29;20491;-77
2022/01/20 06:18:28;;;;;;;20.03;2.43;;;0.40;96.30;;;;;;4915309;29;20532;-76
2022/01/20 06:20:54;;;;;;;9.23;2.30;;;0.40;96.30;;;;;;4916143;29;20475;-77
2022/01/20 06:23:20;;;;;;;10.07;2.13;;;0.40;96.30;;;;;;4898605;29;20252;-77
2022/01/20 06:25:46;;;;;;;10.27;1.70;;;0.40;96.30;;;;;;4898545;29;20430;-77
2022/01/20 06:28:13;;;;;;;7.13;1.80;;;0.40;96.30;;;;;;4916045;29;20471;-77
2022/01/20 06:30:40;;;;;;;17.70;2.00;;;0.30;96.30;;;;;;4883840;29;20463;-77
2022/01/20 06:33:06;;;;;;;10.60;2.10;;;0.40;96.30;;;;;;4897375;29;20496;-77
2022/01/20 06:35:32;;;;;;;12.20;2.50;;;0.40;96.30;;;;;;4888265;29;20421;-77
2022/01/20 06:37:57;;;;;;;5.77;1.57;;;0.40;96.30;;;;;;4915934;29;20424;-77
2022/01/20 06:40:23;;;;;;;8.63;1.70;;;0.40;96.30;;;;;;4913777;29;20456;-77
2022/01/20 06:42:49;;;;;;;8.63;1.17;;;0.40;96.30;;;;;;4915406;29;20176;-77
2022/01/20 06:45:16;;;;;;;14.13;1.83;;;0.30;96.30;;;;;;4899650;29;20192;-77
2022/01/20 06:47:42;;;;;;;5.87;1.53;;;0.30;96.30;;;;;;4886853;29;20204;-77
2022/01/20 06:50:09;;;;;;;12.33;1.97;;;0.20;96.30;;;;;;4911565;29;20460;-76
2022/01/20 06:52:35;;;;;;;12.17;2.20;;;0.10;96.30;;;;;;4899065;29;20192;-77
2022/01/20 06:55:05;;;;;;;13.03;1.73;;;0.10;96.30;;;;;;4915478;29;20431;-76
2022/01/20 06:57:31;;;;;;;14.13;2.40;;;0.00;96.30;;;;;;4915672;29;20416;-76
2022/01/20 06:59:56;;;;;;;9.53;2.00;;;-0.10;96.30;;;;;;4919504;29;20475;-76
2022/01/20 07:02:23;;;;;;;12.43;2.40;;;-0.10;96.30;;;;;;4904034;29;20451;-76
2022/01/20 07:04:48;;;;;;;13.23;2.07;;;-0.10;96.30;;;;;;4915614;29;20549;-76
2022/01/20 07:07:14;;;;;;;6.40;1.67;;;-0.20;96.30;;;;;;4912905;29;20507;-75
2022/01/20 07:09:40;;;;;;;7.20;1.90;;;-0.20;96.30;;;;;;4906638;29;20557;-76
2022/01/20 07:12:06;;;;;;;11.43;1.70;;;-0.20;96.30;;;;;;4896598;29;20240;-76
2022/01/20 07:14:31;;;;;;;6.50;2.37;;;-0.20;96.30;;;;;;4896463;29;20237;-76
2022/01/20 07:16:57;;;;;;;10.70;1.70;;;-0.10;96.30;;;;;;4896715;29;20424;-76
2022/01/20 07:19:24;;;;;;;5.93;1.60;;;-0.10;96.30;;;;;;4879608;29;20557;-75
2022/01/20 07:21:50;;;;;;;7.10;1.43;;;-0.10;96.30;;;;;;4896586;29;20441;-76
2022/01/20 07:24:15;;;;;;;6.97;1.80;;;0.00;96.30;;;;;;4896618;29;20445;-77
2022/01/20 07:26:41;;;;;;;7.17;1.40;;;-0.10;96.30;;;;;;4880445;29;20185;-74
2022/01/20 07:29:06;;;;;;;4.87;1.17;;;-0.10;96.30;;;;;;4896929;29;20208;-73
2022/01/20 07:31:32;;;;;;;10.10;1.70;;;0.00;96.30;;;;;;4896652;29;20229;-73
2022/01/20 07:33:58;;;;;;;9.33;2.07;;;0.00;96.30;;;;;;4896739;29;20265;-73
2022/01/20 07:36:23;;;;;;;5.80;1.83;;;0.00;96.30;;;;;;4894280;29;20669;-74
2022/01/20 07:38:49;;;;;;;8.20;2.27;;;0.10;96.30;;;;;;4915593;29;20656;-72
2022/01/20 07:41:15;;;;;;;7.73;1.20;;;0.00;96.30;;;;;;4918009;29;20236;-77
2022/01/20 07:43:41;;;;;;;8.10;2.23;;;0.10;96.30;;;;;;4925865;29;20181;-78
2022/01/20 07:46:06;;;;;;;6.20;1.30;;;0.10;96.30;;;;;;4904957;29;20447;-77
2022/01/20 07:48:32;;;;;;;3.47;1.60;;;0.10;96.30;;;;;;4919099;29;20180;-78
2022/01/20 07:50:58;;;;;;;3.13;1.00;;;0.10;96.30;;;;;;4902303;29;20204;-77
2022/01/20 07:53:23;;;;;;;6.30;1.20;;;0.10;96.30;;;;;;4919088;29;20479;-76
2022/01/20 07:55:52;;;;;;;2.30;1.03;;;0.00;96.30;;;;;;4913746;29;20581;-78
2022/01/20 07:58:17;;;;;;;5.70;1.57;;;-0.50;96.30;;;;;;4883407;29;20189;-77
2022/01/20 08:00:43;;;;;;;2.97;1.13;;;-1.20;96.30;;;;;;4899879;29;20536;-77
2022/01/20 08:03:08;;;;;;;3.83;0.90;;;-1.40;96.30;;;;;;4883192;29;20323;-78
2022/01/20 08:05:34;;;;;;;9.70;1.50;;;-1.50;96.30;;;;;;4883004;29;20181;-78
2022/01/20 08:07:59;;;;;;;3.37;0.80;;;-1.50;96.30;;;;;;4900643;29;20216;-79
2022/01/20 08:10:25;;;;;;;18.90;2.60;;;-1.60;96.30;;;;;;4897472;29;20719;-77
2022/01/20 08:12:50;;;;;;;8.67;1.20;;;-1.60;96.30;;;;;;4918706;29;20179;-76
2022/01/20 08:15:16;;;;;;;13.00;1.40;;;-1.60;96.30;;;;;;4918537;29;20677;-79
2022/01/20 08:17:42;;;;;;;8.93;0.93;;;-1.60;96.30;;;;;;4918450;29;20180;-78
2022/01/20 08:20:09;;;;;;;7.03;1.57;;;-1.60;96.30;;;;;;4918620;29;20216;-78
2022/01/20 08:22:35;;;;;;;6.77;1.33;;;-1.60;96.30;;;;;;4901361;29;20425;-77
2022/01/20 08:25:06;;;;;;;10.03;1.37;;;-1.50;96.30;;;;;;4918509;29;20428;-79
2022/01/20 08:27:31;;;;;;;11.57;1.53;;;-1.40;96.30;;;;;;4901742;29;20215;-79
2022/01/20 08:29:57;;;;;;;8.57;2.13;;;-1.50;96.30;;;;;;4917328;29;20452;-77
2022/01/20 08:32:22;;;;;;;8.10;1.40;;;-1.50;96.30;;;;;;4901433;29;20208;-73
2022/01/20 08:34:48;;;;;;;4.03;1.20;;;-1.50;96.30;;;;;;4915648;29;20185;-73
2022/01/20 08:37:13;;;;;;;4.10;1.27;;;-1.50;96.30;;;;;;4899439;29;20196;-74
2022/01/20 08:39:43;;;;;;;17.80;2.17;;;-1.50;96.30;;;;;;4882504;29;20216;-73
2022/01/20 08:42:09;;;;;;;6.97;1.03;;;-1.50;96.30;;;;;;4899244;29;20619;-73
2022/01/20 08:44:35;;;;;;;5.80;1.43;;;-1.40;96.30;;;;;;4899054;29;20449;-73
2022/01/20 08:47:02;;;;;;;5.60;1.53;;;-1.30;96.30;;;;;;4899108;29;20417;-74
2022/01/20 08:49:29;;;;;;;3.43;1.07;;;-1.30;96.30;;;;;;4899100;29;20421;-74
2022/01/20 08:51:55;;;;;;;24.77;1.87;;;-1.20;96.30;;;;;;4899069;29;20524;-74
2022/01/20 08:54:20;;;;;;;11.27;1.87;;;-1.20;96.30;;;;;;4898369;29;20956;-75
2022/01/20 08:56:46;;;;;;;6.53;1.70;;;-1.20;96.30;;;;;;4898976;29;20185;-73
2022/01/20 08:59:12;;;;;;;6.30;1.40;;;-1.20;96.30;;;;;;4898903;29;20212;-76
2022/01/20 09:01:39;;;;;;;3.63;0.93;;;-1.20;96.30;;;;;;4898872;29;20204;-74
2022/01/20 09:04:06;;;;;;;7.33;1.50;;;-1.20;96.30;;;;;;4898689;29;20429;-74
2022/01/20 09:06:31;;;;;;;5.93;1.03;;;-1.20;96.30;;;;;;4881921;29;20837;-74
2022/01/20 09:08:57;;;;;;;3.53;1.10;;;-1.20;96.30;;;;;;4898818;29;20417;-74
2022/01/20 09:11:25;;;;;;;5.63;0.90;;;-1.20;96.30;;;;;;4898631;29;20705;-74
2022/01/20 09:16:37;;;;;;;3.90;1.63;;;-1.10;96.30;;;;;;4898313;29;20420;-76
2022/01/20 09:19:03;;;;;;;6.20;1.00;;;-1.20;96.30;;;;;;4881583;29;20801;-75
2022/01/20 09:21:29;;;;;;;4.93;1.43;;;-1.10;96.30;;;;;;4898377;29;20440;-74
2022/01/20 09:23:56;;;;;;;16.27;1.37;;;-1.20;96.30;;;;;;4881559;29;20503;-75
2022/01/20 09:26:22;;;;;;;4.63;1.03;;;-1.20;96.30;;;;;;4914560;29;20189;-74
2022/01/20 09:28:48;;;;;;;3.10;1.07;;;-1.10;96.30;;;;;;4917205;29;20554;-74
2022/01/20 09:31:14;;;;;;;13.73;1.47;;;-1.10;96.30;;;;;;4909230;29;20473;-76
2022/01/20 09:33:40;;;;;;;4.50;1.40;;;-1.10;96.30;;;;;;4898192;29;20177;-77
2022/01/20 09:36:09;;;;;;;4.13;1.50;;;-1.10;96.30;;;;;;4910054;29;20427;-77
2022/01/20 09:38:35;;;;;;;6.87;1.63;;;-1.10;96.30;;;;;;4913930;29;20184;-77
2022/01/20 09:41:01;;;;;;;5.07;1.37;;;-1.20;96.30;;;;;;4916264;29;20464;-76
2022/01/20 09:43:27;;;;;;;10.00;1.63;;;-1.20;96.30;;;;;;4916138;29;20472;-77
2022/01/20 09:45:55;;;;;;;6.37;1.67;;;-1.30;96.30;;;;;;4899636;29;20503;-76
2022/01/20 09:48:22;;;;;;;7.73;1.37;;;-1.30;96.30;;;;;;4900027;29;20176;-76
2022/01/20 09:50:48;;;;;;;3.33;1.20;;;-1.20;96.30;;;;;;4899986;29;20440;-77
2022/01/20 09:53:14;;;;;;;3.70;0.73;;;-1.00;96.30;;;;;;4899347;29;20925;-76
2022/01/20 09:55:40;;;;;;;10.60;1.30;;;-0.80;96.30;;;;;;4897542;29;20429;-77
2022/01/20 09:58:06;;;;;;;8.07;1.23;;;-0.70;96.30;;;;;;4880933;29;20272;-77
2022/01/20 10:00:32;;;;;;;6.70;1.80;;;-0.60;96.30;;;;;;4897596;29;20208;-76
2022/01/20 10:03:09;;;;;;;7.07;1.23;;;-0.70;96.30;;;;;;4897402;29;20424;-77
2022/01/20 10:05:41;;;;;;;5.67;1.40;;;-0.60;96.30;;;;;;4879549;29;20653;-76
2022/01/20 10:08:09;;;;;;;7.27;1.20;;;-0.70;96.30;;;;;;4897728;29;20413;-78
2022/01/20 10:10:40;;;;;;;10.50;1.97;;;-0.80;96.30;;;;;;4913550;29;20475;-77
2022/01/20 10:13:07;;;;;;;6.43;1.20;;;-0.70;96.30;;;;;;4916156;29;20412;-75
2022/01/20 10:15:33;;;;;;;4.17;0.93;;;-0.80;96.30;;;;;;4915561;29;20761;-75
2022/01/20 10:18:09;;;;;;;5.83;1.63;;;-0.60;96.30;;;;;;4916058;29;20500;-76
2022/01/20 10:20:36;;;;;;;13.73;1.70;;;-0.50;96.30;;;;;;4916020;29;20210;-75
2022/01/20 10:23:02;;;;;;;2.40;1.23;;;-0.50;96.30;;;;;;4915995;29;20436;-75
2022/01/20 10:25:33;;;;;;;9.07;2.03;;;-0.70;96.30;;;;;;4915525;29;20416;-74
2022/01/20 10:27:59;;;;;;;6.30;1.70;;;-0.60;96.30;;;;;;4899420;29;20191;-74
2022/01/20 10:30:27;;;;;;;12.03;1.83;;;-0.80;96.30;;;;;;4916108;29;20428;-75
2022/01/20 10:32:57;;;;;;;9.57;1.63;;;-0.60;96.30;;;;;;4916003;29;20175;-75
2022/01/20 10:35:28;;;;;;;6.53;1.20;;;-0.50;96.30;;;;;;4909016;29;20902;-75
2022/01/20 10:38:00;;;;;;;11.67;1.77;;;-0.70;96.30;;;;;;4897209;29;20508;-75
2022/01/20 10:40:26;;;;;;;6.40;1.37;;;-0.70;96.30;;;;;;4896882;29;20453;-76
2022/01/20 10:42:52;;;;;;;10.40;2.03;;;-0.80;96.30;;;;;;4880318;29;20969;-74
2022/01/20 10:45:27;;;;;;;11.00;2.10;;;-0.70;96.30;;;;;;4896846;29;20177;-74
2022/01/20 10:47:55;;;;;;;2.67;1.00;;;-0.50;96.30;;;;;;4896995;29;20472;-76
2022/01/20 10:50:24;;;;;;;7.13;1.60;;;-0.40;96.30;;;;;;4896960;29;20920;-74
2022/01/20 10:52:52;;;;;;;2.57;1.00;;;-0.10;96.30;;;;;;4884508;29;20429;-75
2022/01/20 10:55:25;;;;;;;5.80;1.67;;;0.10;96.30;;;;;;4889697;29;20428;-75
2022/01/20 10:57:55;;;;;;;6.30;1.50;;;0.10;96.30;;;;;;4902491;29;21050;-75
2022/01/20 11:00:25;;;;;;;7.63;1.63;;;0.30;96.30;;;;;;4896665;29;20464;-76
2022/01/20 11:02:56;;;;;;;12.50;2.10;;;0.30;96.30;;;;;;4896865;29;20497;-75
2022/01/20 11:05:23;;;;;;;8.87;2.03;;;0.20;96.30;;;;;;4896570;29;20418;-77
2022/01/20 11:07:49;;;;;;;6.70;1.93;;;0.00;96.30;;;;;;4896868;29;20445;-76
2022/01/20 11:10:16;;;;;;;7.67;2.20;;;-0.10;96.30;;;;;;4914341;29;20450;-76
2022/01/20 11:12:43;;;;;;;6.90;1.83;;;0.40;96.30;;;;;;4903444;29;20433;-77
2022/01/20 11:15:12;;;;;;;10.37;1.67;;;0.30;96.30;;;;;;4902615;29;20443;-73
2022/01/20 11:17:40;;;;;;;10.13;1.90;;;0.20;96.30;;;;;;4918796;29;20412;-75
2022/01/20 11:20:15;;;;;;;9.73;1.33;;;-0.10;96.30;;;;;;4902048;29;20452;-77
2022/01/20 11:22:52;;;;;;;7.90;1.60;;;-0.50;96.30;;;;;;4905647;29;20417;-74
2022/01/20 11:25:21;;;;;;;5.80;2.30;;;-0.60;96.30;;;;;;4910169;29;20920;-72
2022/01/20 11:27:52;;;;;;;7.73;1.30;;;-0.70;96.30;;;;;;4901044;29;20489;-72
2022/01/20 11:30:26;;;;;;;4.67;1.27;;;-0.80;96.30;;;;;;4887181;29;20426;-72
2022/01/20 11:32:59;;;;;;;9.17;1.80;;;-0.90;96.30;;;;;;4902378;29;20427;-71
2022/01/20 11:35:36;;;;;;;9.37;1.20;;;-0.80;96.30;;;;;;4898323;29;20451;-72
2022/01/20 11:38:02;;;;;;;6.70;1.63;;;-0.80;96.30;;;;;;4902946;29;20959;-72
2022/01/20 11:40:27;;;;;;;12.80;1.80;;;-0.70;96.30;;;;;;4902795;29;20460;-77
2022/01/20 11:42:56;;;;;;;8.30;2.30;;;-0.70;96.30;;;;;;4900638;29;20185;-71
2022/01/20 11:45:23;;;;;;;5.13;1.50;;;-0.70;96.30;;;;;;4883594;29;20216;-72
2022/01/20 11:47:49;;;;;;;10.37;2.07;;;-0.70;96.30;;;;;;4896374;29;20452;-71
2022/01/20 11:50:16;;;;;;;10.50;2.20;;;-0.60;96.30;;;;;;4900475;29;20933;-73
2022/01/20 11:52:41;;;;;;;10.83;1.97;;;-0.50;96.30;;;;;;4899694;29;20275;-72
2022/01/20 11:55:12;;;;;;;5.37;1.20;;;-0.70;96.30;;;;;;4898867;29;20516;-72
2022/01/20 11:57:38;;;;;;;7.60;1.80;;;-0.80;96.30;;;;;;4900042;29;20197;-72
2022/01/20 12:00:20;;;;;;;7.20;1.40;;;-0.50;96.30;;;;;;4903090;29;20464;-72
2022/01/20 12:02:46;;;;;;;16.30;2.47;;;-0.40;96.30;;;;;;4906750;29;20524;-73
2022/01/20 12:05:30;;;;;;;7.60;1.77;;;-0.10;96.30;;;;;;4899901;29;20499;-72
2022/01/20 12:08:18;;;;;;;6.90;2.20;;;-0.30;96.30;;;;;;4894317;29;20180;-73
2022/01/20 12:11:07;;;;;;;13.97;2.37;;;-0.40;96.30;;;;;;4900603;29;20460;-74
2022/01/20 12:13:44;;;;;;;5.43;1.30;;;-0.40;96.30;;;;;;4899736;29;20422;-74
2022/01/20 12:16:10;;;;;;;12.03;1.30;;;-0.10;96.30;;;;;;4898830;29;20511;-74
2022/01/20 12:18:35;;;;;;;9.50;2.10;;;0.20;96.30;;;;;;4899159;29;20508;-74
2022/01/20 12:21:04;;;;;;;20.53;2.50;;;0.20;96.30;;;;;;4898935;29;20212;-73
2022/01/20 12:23:30;;;;;;;12.13;1.83;;;-0.10;96.30;;;;;;4903143;29;20195;-73
2022/01/20 12:26:05;;;;;;;12.60;1.67;;;0.00;96.30;;;;;;4905856;29;20429;-73
2022/01/20 12:28:30;;;;;;;5.03;1.33;;;0.00;96.30;;;;;;4898022;29;20664;-73
2022/01/20 12:31:00;;;;;;;6.30;1.70;;;0.50;96.30;;;;;;4912096;29;20464;-73
2022/01/20 12:33:27;;;;;;;10.23;2.87;;;0.90;96.30;;;;;;4900796;29;20192;-73
2022/01/20 12:35:55;;;;;;;6.47;1.30;;;0.90;96.30;;;;;;4906663;29;20467;-73
2022/01/20 12:38:28;;;;;;;21.90;3.00;;;0.80;96.30;;;;;;4898892;29;20433;-73
2022/01/20 12:41:04;;;;;;;12.23;2.23;;;0.70;96.30;;;;;;4906319;29;20564;-73
2022/01/20 12:43:47;;;;;;;15.33;2.00;;;1.10;96.30;;;;;;4888624;29;20441;-73
2022/01/20 12:46:18;;;;;;;5.43;1.30;;;1.10;96.30;;;;;;4897238;29;20433;-73
2022/01/20 12:48:50;;;;;;;5.90;2.20;;;0.90;96.30;;;;;;4900810;29;20456;-74
2022/01/20 12:51:16;;;;;;;7.40;1.57;;;1.20;96.30;;;;;;4917179;29;20829;-73
2022/01/20 12:53:52;;;;;;;7.97;4.27;;;1.20;96.30;;;;;;4917251;29;20424;-73
2022/01/20 12:56:18;;;;;;;7.57;1.40;;;1.60;96.30;;;;;;4905046;29;20512;-74
2022/01/20 12:58:48;;;;;;;12.13;1.70;;;1.70;96.30;;;;;;4898648;29;20537;-71
2022/01/20 13:01:14;;;;;;;5.03;1.37;;;1.60;96.30;;;;;;4898264;29;20291;-71
2022/01/20 13:03:41;;;;;;;9.20;1.47;;;1.40;96.30;;;;;;4898505;29;20851;-71
2022/01/20 13:06:11;;;;;;;5.83;1.73;;;1.10;96.30;;;;;;4894790;29;20188;-73
2022/01/20 13:08:40;;;;;;;7.27;1.70;;;1.10;96.30;;;;;;4890356;29;20417;-72
2022/01/20 13:11:11;;;;;;;7.10;1.33;;;0.80;96.30;;;;;;4898468;29;20444;-73
2022/01/20 13:13:36;;;;;;;9.10;2.53;;;1.00;96.30;;;;;;4898203;29;20504;-73
2022/01/20 13:16:13;;;;;;;10.17;1.70;;;1.20;96.30;;;;;;4898130;29;21014;-75
2022/01/20 13:18:39;;;;;;;10.20;2.33;;;1.20;96.30;;;;;;4892871;29;20187;-72
2022/01/20 13:21:07;;;;;;;11.20;1.60;;;0.90;96.30;;;;;;4876484;29;20539;-74
2022/01/20 13:23:56;;;;;;;6.40;1.80;;;0.80;96.30;;;;;;4905239;29;20196;-72
2022/01/20 13:26:24;;;;;;;4.53;1.47;;;0.50;96.30;;;;;;4899872;29;20947;-74
2022/01/20 13:29:05;;;;;;;9.27;2.43;;;0.50;96.30;;;;;;4899762;29;20423;-73
2022/01/20 13:31:31;;;;;;;10.90;2.27;;;0.60;96.30;;;;;;4912194;29;20433;-74
2022/01/20 13:34:07;;;;;;;7.70;1.40;;;0.60;96.30;;;;;;4881348;29;20536;-74
2022/01/20 13:36:47;;;;;;;7.03;1.70;;;0.50;96.30;;;;;;4898022;29;20943;-74
2022/01/20 13:39:12;;;;;;;9.70;1.40;;;0.10;96.30;;;;;;4880989;29;20941;-74
2022/01/20 13:41:40;;;;;;;10.57;1.80;;;0.20;96.30;;;;;;4897973;29;20476;-75
2022/01/20 13:47:09;;;;;;;6.50;1.50;;;0.10;96.30;;;;;;4912782;29;20780;-74
2022/01/20 13:49:47;;;;;;;12.50;1.23;;;0.00;96.30;;;;;;4916257;29;20916;-74
2022/01/20 13:52:14;;;;;;;9.57;1.90;;;-0.10;96.30;;;;;;4899258;29;20468;-75
2022/01/20 13:54:43;;;;;;;9.37;2.33;;;-0.20;96.30;;;;;;4916419;29;20420;-73
2022/01/20 13:57:09;;;;;;;11.63;1.30;;;-0.30;96.30;;;;;;4883317;29;20425;-74
2022/01/20 13:59:34;;;;;;;7.07;1.20;;;-0.40;96.30;;;;;;4901916;29;20516;-73
2022/01/20 14:02:00;;;;;;;3.87;1.60;;;-0.60;96.30;;;;;;4897540;29;20201;-75
2022/01/20 14:04:26;;;;;;;7.37;2.37;;;-0.60;96.30;;;;;;4912655;29;20183;-75
2022/01/20 14:06:51;;;;;;;6.30;1.30;;;-0.60;96.30;;;;;;4907556;29;20185;-75
2022/01/20 14:09:17;;;;;;;10.20;2.30;;;-0.70;96.30;;;;;;4897603;29;20169;-74
2022/01/20 14:11:43;;;;;;;8.93;1.93;;;-0.70;96.30;;;;;;4900460;29;20200;-73
2022/01/20 14:14:11;;;;;;;5.43;1.60;;;-0.80;96.30;;;;;;4916349;29;20172;-74
2022/01/20 14:16:36;;;;;;;6.07;1.50;;;-0.80;96.30;;;;;;4902301;29;20180;-73
2022/01/20 14:19:03;;;;;;;7.80;1.43;;;-1.20;96.30;;;;;;4897052;29;20421;-75
2022/01/20 14:21:32;;;;;;;4.60;1.17;;;-1.20;96.30;;;;;;4897259;29;20213;-74
2022/01/20 14:23:58;;;;;;;11.27;1.43;;;-1.20;96.30;;;;;;4909318;29;20505;-74
2022/01/20 14:26:29;;;;;;;4.30;1.23;;;-1.30;96.30;;;;;;4898857;29;20420;-74
2022/01/20 14:28:55;;;;;;;11.77;1.77;;;-1.40;96.30;;;;;;4899253;29;20597;-76
2022/01/20 14:31:20;;;;;;;5.43;1.33;;;-1.50;96.30;;;;;;4898960;29;20516;-77
2022/01/20 14:33:46;;;;;;;10.87;2.53;;;-1.60;96.30;;;;;;4916046;29;20984;-77
2022/01/20 14:36:11;;;;;;;5.33;1.10;;;-1.70;96.30;;;;;;4902579;29;20227;-77
2022/01/20 14:38:36;;;;;;;5.57;1.10;;;-1.80;96.30;;;;;;4897140;29;20184;-76
2022/01/20 14:41:02;;;;;;;13.77;2.13;;;-1.90;96.30;;;;;;4896946;29;20213;-77
2022/01/20 14:43:28;;;;;;;6.33;1.27;;;-1.90;96.30;;;;;;4897066;29;20256;-76
2022/01/20 14:45:53;;;;;;;5.03;1.27;;;-1.80;96.30;;;;;;4897154;29;20184;-77
2022/01/20 14:48:19;;;;;;;5.77;1.60;;;-1.80;96.30;;;;;;4897113;29;20184;-77
2022/01/20 14:50:45;;;;;;;6.40;1.70;;;-1.70;96.30;;;;;;4893466;29;20213;-77
2022/01/20 14:53:11;;;;;;;10.53;1.77;;;-1.70;96.30;;;;;;4912420;29;20429;-77
2022/01/20 14:55:37;;;;;;;13.50;2.40;;;-1.70;96.30;;;;;;4880050;29;20437;-77
2022/01/20 14:58:03;;;;;;;7.70;1.50;;;-1.70;96.30;;;;;;4880116;29;20438;-78
2022/01/20 15:00:28;;;;;;;5.10;1.50;;;-1.60;96.30;;;;;;4906873;29;20274;-76
2022/01/20 15:02:54;;;;;;;7.87;1.87;;;-1.60;96.30;;;;;;4915918;29;20589;-78
2022/01/20 15:05:21;;;;;;;5.63;1.17;;;-1.60;96.30;;;;;;4898753;29;20184;-76
2022/01/20 15:07:47;;;;;;;3.20;1.30;;;-1.60;96.30;;;;;;4915070;29;20176;-76
2022/01/20 15:10:15;;;;;;;12.00;2.30;;;-1.60;96.30;;;;;;4910100;29;20484;-73
2022/01/20 15:12:42;;;;;;;6.70;1.80;;;-1.50;96.30;;;;;;4915753;29;20423;-74
2022/01/20 15:15:08;;;;;;;14.10;2.07;;;-1.50;96.30;;;;;;4898520;29;20432;-74
2022/01/20 15:17:34;;;;;;;9.60;1.73;;;-1.50;96.30;;;;;;4912430;29;20536;-75
2022/01/20 15:20:00;;;;;;;11.67;3.43;;;-1.50;96.30;;;;;;4915141;29;21039;-75
2022/01/20 15:22:25;;;;;;;4.43;1.20;;;-1.50;96.30;;;;;;4898659;29;20212;-75
2022/01/20 15:24:51;;;;;;;4.27;1.20;;;-1.50;96.30;;;;;;4914442;29;20660;-75
2022/01/20 15:27:17;;;;;;;6.67;2.90;;;-1.60;96.30;;;;;;4880003;29;20212;-75
2022/01/20 15:29:43;;;;;;;6.67;1.80;;;-1.70;96.30;;;;;;4896762;29;20586;-74
2022/01/20 15:32:08;;;;;;;6.97;1.60;;;-1.60;96.30;;;;;;4896622;29;20445;-74
2022/01/20 15:34:34;;;;;;;8.90;1.37;;;-1.60;96.30;;;;;;4896973;29;20184;-73
2022/01/20 15:36:59;;;;;;;3.03;1.00;;;-1.60;96.30;;;;;;4915600;29;20196;-72
2022/01/20 15:39:25;;;;;;;6.83;1.40;;;-1.70;96.30;;;;;;4915488;29;20192;-73
2022/01/20 15:41:51;;;;;;;10.00;1.57;;;-1.70;96.30;;;;;;4898331;29;20542;-73
2022/01/20 15:44:17;;;;;;;7.23;2.30;;;-1.70;96.30;;;;;;4915350;29;20660;-74
2022/01/20 15:46:44;;;;;;;7.40;2.70;;;-1.70;96.30;;;;;;4898333;29;20507;-73
2022/01/20 15:49:09;;;;;;;7.20;1.30;;;-1.80;96.30;;;;;;4915340;29;20968;-73
2022/01/20 15:51:35;;;;;;;6.43;1.23;;;-1.70;96.30;;;;;;4915411;29;20436;-73
2022/01/20 15:54:01;;;;;;;8.53;1.67;;;-1.70;96.30;;;;;;4915398;29;20189;-73
2022/01/20 15:56:27;;;;;;;8.47;1.33;;;-1.70;96.30;;;;;;4915125;29;20472;-73
2022/01/20 15:58:53;;;;;;;8.47;1.80;;;-1.70;96.30;;;;;;4915355;29;20191;-75
2022/01/20 16:01:18;;;;;;;11.00;1.97;;;-1.70;96.30;;;;;;4915220;29;20246;-75
2022/01/20 16:03:44;;;;;;;9.70;1.93;;;-1.60;96.30;;;;;;4916756;29;20181;-75
2022/01/20 16:06:10;;;;;;;8.73;1.77;;;-1.70;96.30;;;;;;4900130;29;20189;-75
2022/01/20 16:08:35;;;;;;;8.40;1.87;;;-1.70;96.30;;;;;;4916494;29;20184;-75
2022/01/20 16:11:01;;;;;;;5.17;1.87;;;-1.70;96.30;;;;;;4902383;29;20216;-76
2022/01/20 16:13:27;;;;;;;9.03;2.10;;;-1.70;96.30;;;;;;4901393;29;20411;-76
2022/01/20 16:15:52;;;;;;;15.97;2.20;;;-1.70;96.30;;;;;;4901382;29;20878;-76
2022/01/20 16:18:20;;;;;;;5.00;1.20;;;-1.70;96.30;;;;;;4918509;29;20607;-76
2022/01/20 16:20:47;;;;;;;9.13;2.03;;;-1.60;96.30;;;;;;4912853;29;20236;-75
2022/01/20 16:23:13;;;;;;;6.90;1.20;;;-1.60;96.30;;;;;;4897811;29;20445;-75
2022/01/20 16:25:39;;;;;;;4.30;1.23;;;-1.70;96.30;;;;;;4899044;29;20762;-76
2022/01/20 16:28:06;;;;;;;10.13;1.43;;;-1.70;96.30;;;;;;4889060;29;20916;-75
2022/01/20 16:30:32;;;;;;;7.70;1.77;;;-1.60;96.30;;;;;;4918119;29;20423;-76
2022/01/20 16:32:59;;;;;;;3.13;1.30;;;-1.60;96.30;;;;;;4889342;29;20432;-76
2022/01/20 16:35:25;;;;;;;6.90;1.47;;;-1.60;96.30;;;;;;4906110;29;20435;-75
2022/01/20 16:37:51;;;;;;;13.07;2.10;;;-1.70;96.30;;;;;;4912294;29;20480;-76
2022/01/20 16:40:21;;;;;;;5.93;1.23;;;-1.60;96.30;;;;;;4900530;29;20865;-76
2022/01/20 16:42:49;;;;;;;5.97;1.50;;;-1.70;96.30;;;;;;4898076;29;20183;-75
2022/01/20 16:45:15;;;;;;;3.13;1.13;;;-1.70;96.30;;;;;;4890172;29;20843;-76
2022/01/20 16:47:41;;;;;;;3.87;0.97;;;-1.80;96.30;;;;;;4901438;29;20427;-79
2022/01/20 16:50:10;;;;;;;4.13;1.33;;;-1.80;96.30;;;;;;4902078;29;20801;-79
2022/01/20 16:52:36;;;;;;;2.07;0.73;;;-1.80;96.30;;;;;;4891223;29;20441;-80
2022/01/20 16:55:02;;;;;;;7.67;1.37;;;-1.90;96.30;;;;;;4882286;29;20429;-79
2022/01/20 16:57:27;;;;;;;6.73;1.07;;;-1.80;96.30;;;;;;4899537;29;20425;-79
2022/01/20 16:59:53;;;;;;;2.57;1.07;;;-1.80;96.30;;;;;;4910218;29;20472;-80
2022/01/20 17:02:28;;;;;;;2.30;0.67;;;-1.90;96.30;;;;;;4916303;29;20192;-79
2022/01/20 17:04:54;;;;;;;1.80;1.00;;;-1.90;96.30;;;;;;4916612;29;20435;-80
2022/01/20 17:07:19;;;;;;;4.03;0.93;;;-2.00;96.30;;;;;;4900774;29;20425;-80
2022/01/20 17:09:45;;;;;;;1.30;0.83;;;-2.00;96.30;;;;;;4896412;29;20405;-78
2022/01/20 17:12:12;;;;;;;5.33;0.80;;;-2.10;96.30;;;;;;4899212;29;20244;-77
2022/01/20 17:14:38;;;;;;;4.90;1.17;;;-2.20;96.30;;;;;;4912077;29;20643;-75
2022/01/20 17:17:04;;;;;;;1.47;0.63;;;-2.30;96.30;;;;;;4900856;29;20413;-76